Time;durP1;ratioP1;P1;durP2;ratioP2;P2;SDS_P1;SDS_P2;PMS_P1;PMS_P2;Temp;Humidity;BMP_temperature;BMP_pressure;BME280_temperature;BME280_humidity;BME280_pressure;Samples;Min_cycle;Max_cycle;Signal;HPM_P1;HPM_P2
2022/04/26 11:42:40;;;;;;;4.82;2.83;;;;;;;;;;6180622;23;20024;-89
2022/04/26 11:45:06;;;;;;;3.25;2.72;;;;;;;;;;6191382;23;20021;-89
2022/04/26 17:05:27;;;;;;;3.55;2.95;;;;;;;;;;6187638;23;20016;-90
2022/04/26 17:07:54;;;;;;;2.88;2.60;;;;;;;;;;6218133;23;20450;-86
2022/04/26 17:10:20;;;;;;;2.90;2.47;;;;;;;;;;6190417;23;20004;-89
2022/04/26 17:12:50;;;;;;;3.70;2.45;;;;;;;;;;6217236;23;20084;-89
2022/04/26 17:15:19;;;;;;;2.20;1.92;;;;;;;;;;6217128;23;20008;-88
2022/04/26 17:17:45;;;;;;;3.72;2.30;;;;;;;;;;6216965;23;20479;-87
2022/04/26 17:20:13;;;;;;;2.78;2.50;;;;;;;;;;6190461;23;20062;-87
2022/04/26 17:22:40;;;;;;;3.60;2.25;;;;;;;;;;6218851;23;20011;-91
2022/04/26 17:25:15;;;;;;;3.90;2.33;;;;;;;;;;6217658;23;20083;-89
2022/04/26 17:27:43;;;;;;;3.13;2.75;;;;;;;;;;6219695;23;20001;-93
2022/04/26 17:30:10;;;;;;;2.78;2.22;;;;;;;;;;6191640;23;20051;-93
2022/04/26 17:32:36;;;;;;;4.07;2.70;;;;;;;;;;6191737;23;20005;-88
2022/04/26 17:35:02;;;;;;;2.65;2.25;;;;;;;;;;6217096;23;20427;-90
2022/04/26 17:37:28;;;;;;;3.38;3.08;;;;;;;;;;6219142;23;20008;-92
2022/04/26 17:39:53;;;;;;;4.38;2.83;;;;;;;;;;6218546;23;20004;-89
2022/04/26 17:42:19;;;;;;;2.97;2.65;;;;;;;;;;6190783;23;20434;-91
2022/04/26 17:44:46;;;;;;;2.67;2.33;;;;;;;;;;6220279;23;20004;-95
2022/04/26 17:47:11;;;;;;;2.83;2.60;;;;;;;;;;6217079;23;20005;-88
2022/04/26 17:49:40;;;;;;;3.45;2.30;;;;;;;;;;6217135;23;20027;-87
2022/04/26 17:52:06;;;;;;;2.92;2.53;;;;;;;;;;6216516;23;20011;-86
2022/04/26 17:57:16;;;;;;;4.10;2.63;;;;;;;;;;6219769;23;20011;-91
2022/04/26 17:59:41;;;;;;;2.78;2.47;;;;;;;;;;6218208;23;20000;-89
2022/04/26 18:02:09;;;;;;;2.70;2.50;;;;;;;;;;6217345;23;20008;-89
2022/04/26 18:04:34;;;;;;;2.70;2.50;;;;;;;;;;6190186;23;20024;-90
2022/04/26 18:07:00;;;;;;;2.63;2.30;;;;;;;;;;6216850;23;20000;-88
2022/04/26 18:09:25;;;;;;;3.25;2.85;;;;;;;;;;6190001;23;20008;-88
2022/04/26 18:11:51;;;;;;;3.03;2.60;;;;;;;;;;6216337;23;20001;-88
2022/04/26 18:14:17;;;;;;;2.88;2.60;;;;;;;;;;6217637;23;20001;-88
2022/04/26 18:16:42;;;;;;;3.38;3.08;;;;;;;;;;6217505;23;20438;-88
2022/04/26 18:19:07;;;;;;;3.60;3.15;;;;;;;;;;6191006;23;20089;-88
2022/04/26 18:21:34;;;;;;;3.40;2.60;;;;;;;;;;6217306;23;19996;-89
2022/04/26 18:24:00;;;;;;;4.47;3.08;;;;;;;;;;6219798;23;20013;-90
2022/04/26 18:26:26;;;;;;;4.25;2.72;;;;;;;;;;6218742;23;20027;-88
2022/04/26 18:28:56;;;;;;;3.65;2.60;;;;;;;;;;6216890;23;20001;-89
2022/04/26 18:31:22;;;;;;;;;;;;;;;;;;6217413;23;20450;-87
2022/04/26 18:33:48;;;;;;;3.60;3.28;;;;;;;;;;6217135;23;19935;-91
2022/04/26 18:36:17;;;;;;;3.85;3.05;;;;;;;;;;6189699;23;20009;-88
2022/04/26 18:38:53;;;;;;;;;;;;;;;;;;6190667;23;20004;-87
2022/04/26 18:41:20;;;;;;;3.35;3.05;;;;;;;;;;6215921;23;19907;-89
2022/04/26 18:43:47;;;;;;;4.07;3.10;;;;;;;;;;6189235;23;20015;-89
2022/04/26 18:46:14;;;;;;;5.72;4.18;;;;;;;;;;6189552;23;20008;-89
2022/04/26 18:48:41;;;;;;;4.63;3.42;;;;;;;;;;6216584;23;20001;-89
2022/04/26 18:51:08;;;;;;;5.60;3.20;;;;;;;;;;6217047;23;20008;-89
2022/04/26 18:53:35;;;;;;;4.38;3.60;;;;;;;;;;6191028;23;20008;-90
2022/04/26 18:56:01;;;;;;;4.57;3.55;;;;;;;;;;6217872;23;20012;-89
2022/04/26 18:58:27;;;;;;;5.03;3.60;;;;;;;;;;6217484;23;20084;-90
2022/04/26 19:00:54;;;;;;;3.65;3.35;;;;;;;;;;6190716;23;20335;-89
2022/04/26 19:03:20;;;;;;;4.68;3.53;;;;;;;;;;6217051;23;20005;-88
2022/04/26 19:05:46;;;;;;;4.25;3.38;;;;;;;;;;6216815;23;20020;-90
2022/04/26 19:08:13;;;;;;;3.53;3.10;;;;;;;;;;6190965;23;20424;-90
2022/04/26 19:13:22;;;;;;;3.75;3.00;;;;;;;;;;6218025;23;20063;-91
2022/04/26 19:15:48;;;;;;;4.95;3.13;;;;;;;;;;6217261;23;20000;-90
2022/04/26 19:18:16;;;;;;;4.63;3.10;;;;;;;;;;6192638;23;20040;-90
2022/04/26 19:20:41;;;;;;;2.50;2.30;;;;;;;;;;6192525;23;20092;-91
2022/04/26 19:23:07;;;;;;;4.05;3.20;;;;;;;;;;6192964;23;20447;-92
2022/04/26 19:25:32;;;;;;;2.50;2.30;;;;;;;;;;6194963;23;20091;-92
2022/04/26 19:27:58;;;;;;;2.97;2.08;;;;;;;;;;6191876;23;20063;-93
2022/04/26 19:30:23;;;;;;;2.75;2.40;;;;;;;;;;6219488;23;20004;-93
2022/04/26 19:32:49;;;;;;;2.58;2.20;;;;;;;;;;6220192;23;20008;-94
2022/04/26 19:35:15;;;;;;;2.45;2.10;;;;;;;;;;6220120;23;20047;-93
2022/04/26 19:37:40;;;;;;;3.70;2.25;;;;;;;;;;6219112;23;20004;-90
2022/04/26 19:40:07;;;;;;;2.28;2.08;;;;;;;;;;6219885;23;20000;-91
2022/04/26 19:42:33;;;;;;;2.40;2.03;;;;;;;;;;6218370;23;20000;-92
2022/04/26 19:44:59;;;;;;;2.85;1.98;;;;;;;;;;6192324;23;20009;-91
2022/04/26 19:47:25;;;;;;;1.40;1.10;;;;;;;;;;6218487;23;20001;-92
2022/04/26 19:52:35;;;;;;;1.50;1.33;;;;;;;;;;6220094;23;20146;-90
2022/04/26 19:55:01;;;;;;;0.93;0.88;;;;;;;;;;6223293;23;20416;-88
2022/04/26 19:57:27;;;;;;;1.20;1.10;;;;;;;;;;6233592;23;20204;-89
2022/04/26 19:59:54;;;;;;;0.90;0.90;;;;;;;;;;6222918;23;20007;-90
2022/04/26 20:02:20;;;;;;;1.10;1.10;;;;;;;;;;6219422;23;20434;-91
2022/04/26 20:04:47;;;;;;;1.00;1.00;;;;;;;;;;6218829;23;20095;-91
2022/04/26 20:07:17;;;;;;;1.15;1.15;;;;;;;;;;6219482;23;20005;-91
2022/04/26 20:09:46;;;;;;;1.92;1.30;;;;;;;;;;6219469;23;20059;-91
2022/04/26 20:12:12;;;;;;;1.10;1.00;;;;;;;;;;6218939;23;20004;-92
2022/04/26 20:14:38;;;;;;;2.33;1.38;;;;;;;;;;6219004;23;20123;-89
2022/04/26 20:17:04;;;;;;;1.58;1.40;;;;;;;;;;6218875;23;20005;-91
2022/04/26 20:19:30;;;;;;;3.17;1.40;;;;;;;;;;6218547;23;20011;-91
2022/04/26 20:21:56;;;;;;;1.88;1.20;;;;;;;;;;6219799;23;20000;-91
2022/04/26 20:24:22;;;;;;;0.93;0.93;;;;;;;;;;6218952;23;20301;-90
2022/04/26 20:29:46;;;;;;;1.17;1.08;;;;;;;;;;6218527;23;20058;-93
2022/04/26 20:32:16;;;;;;;1.55;1.30;;;;;;;;;;6219534;23;20439;-91
2022/04/26 20:34:42;;;;;;;1.35;1.23;;;;;;;;;;6192699;23;20004;-91
2022/04/26 20:37:08;;;;;;;1.30;1.20;;;;;;;;;;6219057;23;20009;-90
2022/04/26 20:39:34;;;;;;;2.15;1.40;;;;;;;;;;6219925;23;20080;-90
2022/04/26 20:42:00;;;;;;;1.52;1.42;;;;;;;;;;6218172;23;20059;-89
2022/04/26 20:44:25;;;;;;;1.30;1.20;;;;;;;;;;6218316;23;20013;-91
2022/04/26 20:46:51;;;;;;;0.88;0.88;;;;;;;;;;6191720;23;20055;-90
2022/04/26 20:49:17;;;;;;;0.90;0.90;;;;;;;;;;6218547;23;20360;-89
2022/04/26 20:51:43;;;;;;;1.35;1.10;;;;;;;;;;6191441;23;20340;-91
2022/04/26 20:54:08;;;;;;;1.58;0.95;;;;;;;;;;6218227;23;20008;-89
2022/04/26 20:56:34;;;;;;;1.88;1.23;;;;;;;;;;6191966;23;20007;-91
2022/04/26 20:58:59;;;;;;;0.98;0.98;;;;;;;;;;6218263;23;20039;-92
2022/04/26 21:01:25;;;;;;;0.90;0.90;;;;;;;;;;6218655;23;20009;-90
2022/04/26 21:03:50;;;;;;;1.10;1.00;;;;;;;;;;6219616;23;20004;-91
2022/04/26 21:06:16;;;;;;;1.10;1.00;;;;;;;;;;6219028;23;20383;-90
2022/04/26 21:08:44;;;;;;;1.13;1.10;;;;;;;;;;6190812;23;20010;-90
2022/04/26 21:11:10;;;;;;;0.98;0.98;;;;;;;;;;6190384;23;20066;-89
2022/04/26 21:13:36;;;;;;;1.60;1.10;;;;;;;;;;6190030;23;20012;-91
2022/04/26 21:16:02;;;;;;;0.90;0.90;;;;;;;;;;6218378;23;20046;-88
2022/04/26 21:18:28;;;;;;;1.85;1.27;;;;;;;;;;6218249;23;20028;-88
2022/04/26 21:20:54;;;;;;;1.30;1.20;;;;;;;;;;6217684;23;20054;-93
2022/04/26 21:23:20;;;;;;;1.33;1.15;;;;;;;;;;6217570;23;20011;-87
2022/04/26 21:25:45;;;;;;;1.77;1.30;;;;;;;;;;6216773;23;20004;-91
2022/04/26 21:28:11;;;;;;;1.40;1.30;;;;;;;;;;6190542;23;20388;-91
2022/04/26 21:30:36;;;;;;;1.15;1.00;;;;;;;;;;6217016;23;20008;-88
2022/04/26 21:33:02;;;;;;;0.95;0.85;;;;;;;;;;6217077;23;20000;-88
2022/04/26 21:35:28;;;;;;;1.23;1.13;;;;;;;;;;6216605;23;20009;-90
2022/04/26 21:37:54;;;;;;;1.50;1.08;;;;;;;;;;6217017;23;19997;-89
